Weather at Veum Airstrip

Public forecast

Using degrees Celsius for public forecast. Weather courtesy of forecast.io.

Closest aviation weather report (METAR) to Veum Airstrip

Closest report is Moss Airport, Rygge, 8.4 nm (15.6 km) NNW.

2024/05/26 18:50 (retrieved 34 minutes ago)

ENRY 261850Z AUTO 08007KT 9999 BKN086/// BKN110/// 17/14 Q1019

Closest aviation forecast (TAF) to Veum Airstrip

Closest forecast is Moss Airport, Rygge, 8.4 nm (15.6 km) NNW.

2024/05/26 18:38 (retrieved 46 minutes ago)

TAF ENRY 261700Z 2618/2718 11010KT 9999 FEW040TCU TEMPO 2618/2704 SHRA SCT040CB TEMPO 2618/2619 15015G30KT TS BECMG 2619/2621 VRB03KT PROB40 2700/2708 BKN010 BECMG 2706/2708 19010KT TEMPO 2708/2718 FEW030CB